createdAt,value
2019-02-25T00:01:41.626Z,8.05
2019-02-25T00:04:11.083Z,7.10
2019-02-25T00:06:38.925Z,7.50
2019-02-25T00:09:08.559Z,8.70
2019-02-25T00:11:37.136Z,7.90
2019-02-25T00:14:04.945Z,7.87
2019-02-25T00:16:33.348Z,7.53
2019-02-25T00:19:01.213Z,7.15
2019-02-25T00:21:29.014Z,7.35
2019-02-25T00:23:56.799Z,6.83
2019-02-25T00:26:24.609Z,6.40
2019-02-25T00:28:52.486Z,7.10
2019-02-25T00:31:20.275Z,6.30
2019-02-25T00:33:48.060Z,7.00
2019-02-25T00:36:15.894Z,6.83
2019-02-25T00:38:43.654Z,6.45
2019-02-25T00:41:21.500Z,6.67
2019-02-25T00:44:08.739Z,6.47
2019-02-25T00:46:36.865Z,6.35
2019-02-25T00:49:04.686Z,6.20
2019-02-25T00:51:51.991Z,6.70
2019-02-25T00:54:19.809Z,6.42
2019-02-25T00:56:47.665Z,6.80
2019-02-25T00:59:15.452Z,6.15
2019-02-25T01:01:43.380Z,6.15
2019-02-25T01:04:11.162Z,5.83
2019-02-25T01:06:39.012Z,5.83
2019-02-25T01:09:06.976Z,5.97
2019-02-25T01:11:34.758Z,8.23
2019-02-25T01:14:02.864Z,6.47
2019-02-25T01:16:30.676Z,8.10
2019-02-25T01:18:58.501Z,7.28
2019-02-25T01:21:26.296Z,7.20
2019-02-25T01:23:54.071Z,7.78
2019-02-25T01:26:21.860Z,7.55
2019-02-25T01:28:49.685Z,7.50
2019-02-25T01:31:17.444Z,7.95
2019-02-25T01:33:45.569Z,7.58
2019-02-25T01:36:13.357Z,7.62
2019-02-25T01:38:41.197Z,7.37
2019-02-25T01:41:09.038Z,8.05
2019-02-25T01:43:36.887Z,7.40
2019-02-25T01:46:04.700Z,7.42
2019-02-25T01:48:32.519Z,7.10
2019-02-25T01:51:00.715Z,8.13
2019-02-25T01:53:28.485Z,7.12
2019-02-25T01:55:56.322Z,7.47
2019-02-25T01:58:24.095Z,7.87
2019-02-25T02:00:56.964Z,7.15
2019-02-25T02:03:24.907Z,6.97
2019-02-25T02:05:52.782Z,6.85
2019-02-25T02:08:23.001Z,6.53
2019-02-25T02:11:51.738Z,6.53
2019-02-25T02:14:19.649Z,5.67
2019-02-25T02:16:47.377Z,5.87
2019-02-25T02:19:15.181Z,5.08
2019-02-25T02:21:43.055Z,4.60
2019-02-25T02:24:10.894Z,4.78
2019-02-25T02:26:38.712Z,5.50
2019-02-25T02:29:06.457Z,4.97
2019-02-25T02:31:34.350Z,4.95
2019-02-25T02:34:02.164Z,5.05
2019-02-25T02:36:30.042Z,5.50
2019-02-25T02:38:57.827Z,5.08
2019-02-25T02:41:25.625Z,4.83
2019-02-25T02:43:53.407Z,4.97
2019-02-25T02:47:25.593Z,4.70
2019-02-25T02:49:53.471Z,4.72
2019-02-25T02:52:21.277Z,5.15
2019-02-25T02:54:49.065Z,5.28
2019-02-25T02:57:36.342Z,8.50
2019-02-25T03:00:15.973Z,5.55
2019-02-25T03:02:43.914Z,5.97
2019-02-25T03:05:14.658Z,5.37
2019-02-25T03:07:42.435Z,5.12
2019-02-25T03:10:11.758Z,5.67
2019-02-25T03:12:39.634Z,6.42
2019-02-25T03:15:11.528Z,5.85
2019-02-25T03:17:39.372Z,6.58
2019-02-25T03:20:12.590Z,5.47
2019-02-25T03:22:40.422Z,5.75
2019-02-25T03:25:11.167Z,6.22
2019-02-25T03:27:38.976Z,5.40
2019-02-25T03:30:14.590Z,6.15
2019-02-25T03:32:42.389Z,6.00
2019-02-25T03:35:10.180Z,6.25
2019-02-25T03:37:37.931Z,6.10
2019-02-25T03:40:17.849Z,5.72
2019-02-25T03:42:45.634Z,5.22
2019-02-25T03:45:15.351Z,6.10
2019-02-25T03:48:02.581Z,6.17
2019-02-25T03:50:35.376Z,6.03
2019-02-25T03:53:03.291Z,5.83
2019-02-25T03:55:31.139Z,6.60
2019-02-25T03:57:58.931Z,6.15
2019-02-25T04:00:27.047Z,6.37
2019-02-25T04:02:54.889Z,6.30
2019-02-25T04:05:22.701Z,5.92
2019-02-25T04:07:50.638Z,5.95
2019-02-25T04:10:18.735Z,5.80
2019-02-25T04:12:46.504Z,6.28
2019-02-25T04:15:17.713Z,7.05
2019-02-25T04:17:45.468Z,8.60
2019-02-25T04:20:14.219Z,8.23
2019-02-25T04:22:42.036Z,8.38
2019-02-25T04:25:09.948Z,8.38
2019-02-25T04:27:37.790Z,11.55
2019-02-25T04:30:13.361Z,11.93
2019-02-25T04:32:41.184Z,8.33
2019-02-25T04:35:10.215Z,7.20
2019-02-25T04:37:38.034Z,6.95
2019-02-25T04:40:15.841Z,6.05
2019-02-25T04:42:43.653Z,7.17
2019-02-25T04:45:14.287Z,6.58
2019-02-25T04:47:49.370Z,7.17
2019-02-25T04:50:17.174Z,6.72
2019-02-25T04:52:44.968Z,7.10
2019-02-25T04:55:12.892Z,6.75
2019-02-25T04:57:40.681Z,6.95
2019-02-25T05:00:14.597Z,6.42
2019-02-25T05:02:49.544Z,8.08
2019-02-25T05:05:17.399Z,8.25
2019-02-25T05:07:45.176Z,11.95
2019-02-25T05:10:14.380Z,8.68
2019-02-25T05:12:47.384Z,9.78
2019-02-25T05:15:16.412Z,8.23
2019-02-25T05:17:44.197Z,8.33
2019-02-25T05:20:23.490Z,8.53
2019-02-25T05:22:51.231Z,7.53
2019-02-25T05:25:19.041Z,7.35
2019-02-25T05:27:46.838Z,7.65
2019-02-25T05:30:15.364Z,6.78
2019-02-25T05:32:43.287Z,6.87
2019-02-25T05:35:11.256Z,6.60
2019-02-25T05:37:39.037Z,6.62
2019-02-25T05:40:11.897Z,6.55
2019-02-25T05:42:42.816Z,6.60
2019-02-25T05:45:11.511Z,6.67
2019-02-25T05:47:42.414Z,6.40
2019-02-25T05:50:12.452Z,7.10
2019-02-25T05:52:40.249Z,7.25
2019-02-25T05:55:27.517Z,7.15
2019-02-25T05:57:55.327Z,8.03
2019-02-25T06:00:25.348Z,6.83
2019-02-25T06:02:53.124Z,6.60
2019-02-25T06:05:21.785Z,6.85
2019-02-25T06:07:49.609Z,6.78
2019-02-25T06:10:17.724Z,7.75
2019-02-25T06:12:45.622Z,15.23
2019-02-25T06:15:14.859Z,18.17
2019-02-25T06:17:42.711Z,17.15
2019-02-25T06:20:11.598Z,13.55
2019-02-25T06:22:39.356Z,10.90
2019-02-25T06:25:07.436Z,8.70
2019-02-25T06:27:35.245Z,8.15
2019-02-25T06:30:08.084Z,8.43
2019-02-25T06:32:35.894Z,7.42
2019-02-25T06:35:05.067Z,8.33
2019-02-25T06:37:32.839Z,10.58
2019-02-25T06:40:00.695Z,11.88
2019-02-25T06:42:28.489Z,12.47
2019-02-25T06:44:56.351Z,12.40
2019-02-25T06:47:24.155Z,12.82
2019-02-25T06:49:52.013Z,13.25
2019-02-25T06:52:20.125Z,10.40
2019-02-25T06:54:48.051Z,15.53
2019-02-25T06:57:15.869Z,9.53
2019-02-25T06:59:43.695Z,7.92
2019-02-25T07:02:11.526Z,8.25
2019-02-25T07:05:04.914Z,8.23
2019-02-25T07:07:49.808Z,8.55
2019-02-25T07:10:45.903Z,8.13
2019-02-25T07:13:36.124Z,9.78
2019-02-25T07:16:23.550Z,11.08
2019-02-25T07:19:03.686Z,8.80
2019-02-25T07:21:57.016Z,8.18
2019-02-25T07:24:52.839Z,9.50
2019-02-25T07:27:38.457Z,8.93
2019-02-25T07:30:17.639Z,8.15
2019-02-25T07:32:55.901Z,8.60
2019-02-25T07:35:42.031Z,8.37
2019-02-25T07:38:39.778Z,8.30
2019-02-25T07:41:35.458Z,7.80
2019-02-25T07:44:22.844Z,10.63
2019-02-25T07:47:19.550Z,11.93
2019-02-25T07:50:15.748Z,13.30
2019-02-25T07:52:49.390Z,12.97
2019-02-25T07:55:39.823Z,13.30
2019-02-25T07:58:22.192Z,14.73
2019-02-25T08:01:00.892Z,15.27
2019-02-25T08:03:34.010Z,14.27
2019-02-25T08:06:20.228Z,14.53
2019-02-25T08:09:05.785Z,13.20
2019-02-25T08:12:02.454Z,13.50
2019-02-25T08:14:49.848Z,11.53
2019-02-25T08:17:27.223Z,12.20
2019-02-25T08:20:09.643Z,11.10
2019-02-25T08:23:06.220Z,11.97
2019-02-25T08:25:52.158Z,13.20
2019-02-25T08:28:45.645Z,12.53
2019-02-25T08:31:36.377Z,11.10
2019-02-25T08:34:22.369Z,10.20
2019-02-25T08:37:59.277Z,16.47
2019-02-25T08:41:18.314Z,11.93
2019-02-25T08:43:58.840Z,12.27
2019-02-25T08:46:34.490Z,12.07
2019-02-25T08:49:06.547Z,11.50
2019-02-25T08:51:34.408Z,9.40
2019-02-25T08:54:02.234Z,9.10
2019-02-25T08:56:30.133Z,9.30
2019-02-25T08:58:57.959Z,9.20
2019-02-25T09:01:39.737Z,8.67
2019-02-25T09:04:07.582Z,9.47
2019-02-25T09:06:35.347Z,8.87
2019-02-25T09:09:04.986Z,7.80
2019-02-25T09:11:48.152Z,8.30
2019-02-25T09:14:15.965Z,18.57
2019-02-25T09:16:43.774Z,7.57
2019-02-25T09:19:11.568Z,7.40
2019-02-25T09:21:39.396Z,7.77
2019-02-25T09:24:07.202Z,7.93
2019-02-25T09:26:35.017Z,7.50
2019-02-25T09:29:03.653Z,7.77
2019-02-25T09:31:31.451Z,12.00
2019-02-25T09:33:59.278Z,10.00
2019-02-25T09:36:27.046Z,14.03
2019-02-25T09:38:56.664Z,7.57
2019-02-25T09:41:29.858Z,7.30
2019-02-25T09:43:54.355Z,7.27
2019-02-25T09:46:23.097Z,6.53
2019-02-25T09:48:50.951Z,7.10
2019-02-25T09:51:18.872Z,6.87
2019-02-25T09:53:46.643Z,7.17
2019-02-25T09:56:15.318Z,6.37
2019-02-25T09:58:43.180Z,6.97
2019-02-25T10:01:25.101Z,6.40
2019-02-25T10:03:52.912Z,8.07
2019-02-25T10:06:20.770Z,6.73
2019-02-25T10:08:48.568Z,6.60
2019-02-25T10:11:16.422Z,6.40
2019-02-25T10:13:44.214Z,7.30
2019-02-25T10:16:12.087Z,6.23
2019-02-25T10:18:39.848Z,6.17
2019-02-25T10:21:07.684Z,5.70
2019-02-25T10:23:35.445Z,5.53
2019-02-25T10:26:03.259Z,6.80
2019-02-25T10:28:31.036Z,5.40
2019-02-25T10:30:58.882Z,6.00
2019-02-25T10:33:26.702Z,5.20
2019-02-25T10:35:54.533Z,5.60
2019-02-25T10:38:22.321Z,6.00
2019-02-25T10:40:55.699Z,6.57
2019-02-25T10:43:23.539Z,5.63
2019-02-25T10:45:51.313Z,5.70
2019-02-25T10:48:19.856Z,5.80
2019-02-25T10:50:59.267Z,6.47
2019-02-25T10:53:27.114Z,6.70
2019-02-25T10:56:33.213Z,10.87
2019-02-25T10:59:02.290Z,6.20
2019-02-25T11:01:30.834Z,6.03
2019-02-25T11:03:58.689Z,6.30
2019-02-25T11:06:27.386Z,5.90
2019-02-25T11:09:02.596Z,7.43
2019-02-25T11:11:33.430Z,6.70
2019-02-25T11:14:02.936Z,7.93
2019-02-25T11:16:30.945Z,7.80
2019-02-25T11:19:00.830Z,7.40
2019-02-25T11:21:28.571Z,7.63
2019-02-25T11:23:56.389Z,7.80
2019-02-25T11:26:26.117Z,7.70
2019-02-25T11:28:53.919Z,9.23
2019-02-25T11:31:24.542Z,8.15
2019-02-25T11:33:53.344Z,8.20
2019-02-25T11:36:22.083Z,7.78
2019-02-25T11:38:49.969Z,8.08
2019-02-25T11:41:22.850Z,16.70
2019-02-25T11:43:52.836Z,8.25
2019-02-25T11:46:20.354Z,7.70
2019-02-25T11:48:48.155Z,8.18
2019-02-25T11:51:16.199Z,8.00
2019-02-25T11:53:44.024Z,12.85
2019-02-25T11:56:12.271Z,9.08
2019-02-25T11:58:40.041Z,7.78
2019-02-25T12:01:26.816Z,9.40
2019-02-25T12:03:55.428Z,7.92
2019-02-25T12:06:23.244Z,8.00
2019-02-25T12:08:51.062Z,8.28
2019-02-25T12:11:18.890Z,7.37
2019-02-25T12:13:46.751Z,9.05
2019-02-25T12:16:14.588Z,7.60
2019-02-25T12:18:42.398Z,7.37
2019-02-25T12:21:10.239Z,8.03
2019-02-25T12:23:38.065Z,7.78
2019-02-25T12:26:05.852Z,14.30
2019-02-25T12:28:33.715Z,8.60
2019-02-25T12:31:01.460Z,7.67
2019-02-25T12:33:29.315Z,7.60
2019-02-25T12:35:57.092Z,7.92
2019-02-25T12:38:24.903Z,10.32
2019-02-25T12:41:07.972Z,9.03
2019-02-25T12:43:35.765Z,7.67
2019-02-25T12:46:03.557Z,7.92
2019-02-25T12:48:31.734Z,8.35
2019-02-25T12:50:59.564Z,7.53
2019-02-25T12:53:27.384Z,6.75
2019-02-25T12:55:55.232Z,7.20
2019-02-25T12:58:23.060Z,7.37
2019-02-25T13:00:50.909Z,6.95
2019-02-25T13:03:18.748Z,7.17
2019-02-25T13:05:46.542Z,6.92
2019-02-25T13:08:14.336Z,7.03
2019-02-25T13:10:42.170Z,6.65
2019-02-25T13:13:09.977Z,6.87
2019-02-25T13:15:37.847Z,6.65
2019-02-25T13:18:05.639Z,5.90
2019-02-25T13:20:33.541Z,6.20
2019-02-25T13:23:01.368Z,7.08
2019-02-25T13:25:29.272Z,8.50
2019-02-25T13:27:58.746Z,6.00
2019-02-25T13:30:27.044Z,6.62
2019-02-25T13:32:54.902Z,6.10
2019-02-25T13:35:22.627Z,5.72
2019-02-25T13:37:50.742Z,5.85
2019-02-25T13:40:18.675Z,6.05
2019-02-25T13:42:46.516Z,5.67
2019-02-25T13:45:14.434Z,5.05
2019-02-25T13:47:42.330Z,5.75
2019-02-25T13:50:15.583Z,7.75
2019-02-25T13:52:48.218Z,5.80
2019-02-25T13:55:13.669Z,6.40
2019-02-25T13:57:41.558Z,5.62
2019-02-25T14:00:17.203Z,4.75
2019-02-25T14:02:45.627Z,5.05
2019-02-25T14:05:13.528Z,4.67
2019-02-25T14:07:41.385Z,5.17
2019-02-25T14:10:10.049Z,5.47
2019-02-25T14:12:38.047Z,5.40
2019-02-25T14:15:06.759Z,4.95
2019-02-25T14:17:34.791Z,5.15
2019-02-25T14:20:12.005Z,4.70
2019-02-25T14:22:39.832Z,3.80
2019-02-25T14:25:12.417Z,5.00
2019-02-25T14:27:40.431Z,4.15
2019-02-25T14:30:13.137Z,4.42
2019-02-25T14:32:40.974Z,4.00
2019-02-25T14:35:08.798Z,4.50
2019-02-25T14:37:36.584Z,4.30
2019-02-25T14:40:06.045Z,5.47
2019-02-25T14:42:36.341Z,4.25
2019-02-25T14:45:07.237Z,3.55
2019-02-25T14:47:37.014Z,3.50
2019-02-25T14:50:05.724Z,3.52
2019-02-25T14:52:33.595Z,3.08
2019-02-25T14:55:04.121Z,3.90
2019-02-25T14:57:32.859Z,3.77
2019-02-25T15:00:00.820Z,3.80
2019-02-25T15:02:28.652Z,3.80
2019-02-25T15:04:56.459Z,4.63
2019-02-25T15:07:24.282Z,5.37
2019-02-25T15:09:52.117Z,4.30
2019-02-25T15:12:20.725Z,4.30
2019-02-25T15:14:48.875Z,3.47
2019-02-25T15:17:16.598Z,3.57
2019-02-25T15:19:44.450Z,3.90
2019-02-25T15:22:12.290Z,3.80
2019-02-25T15:24:40.088Z,3.67
2019-02-25T15:27:09.298Z,4.07
2019-02-25T15:29:39.636Z,7.70
2019-02-25T15:32:07.441Z,5.40
2019-02-25T15:34:35.231Z,3.53
2019-02-25T15:37:04.686Z,3.43
2019-02-25T15:39:32.753Z,3.20
2019-02-25T15:42:03.731Z,3.70
2019-02-25T15:44:31.617Z,3.97
2019-02-25T15:47:04.233Z,3.80
2019-02-25T15:49:32.259Z,4.10
2019-02-25T15:52:02.885Z,3.53
2019-02-25T15:54:32.749Z,5.50
2019-02-25T15:57:03.453Z,4.13
2019-02-25T15:59:32.236Z,4.00
2019-02-25T16:02:00.293Z,4.57
2019-02-25T16:04:31.600Z,4.57
2019-02-25T16:06:59.583Z,4.83
2019-02-25T16:09:29.359Z,4.67
2019-02-25T16:11:58.972Z,4.60
2019-02-25T16:14:27.724Z,5.07
2019-02-25T16:16:57.307Z,4.23
2019-02-25T16:19:34.887Z,5.13
2019-02-25T16:21:56.797Z,4.23
2019-02-25T16:24:24.627Z,4.53
2019-02-25T16:26:53.829Z,4.60
2019-02-25T16:29:22.147Z,5.47
2019-02-25T16:32:01.941Z,4.67
2019-02-25T16:34:29.994Z,4.90
2019-02-25T16:36:58.241Z,4.40
2019-02-25T16:39:27.536Z,4.60
2019-02-25T16:41:55.363Z,4.30
2019-02-25T16:44:23.122Z,6.47
2019-02-25T16:46:50.987Z,4.50
2019-02-25T16:49:18.851Z,3.77
2019-02-25T16:51:46.696Z,3.63
2019-02-25T16:54:18.938Z,4.07
2019-02-25T16:56:45.221Z,4.67
2019-02-25T16:59:13.993Z,3.60
2019-02-25T17:01:42.764Z,3.87
2019-02-25T17:04:12.228Z,3.50
2019-02-25T17:06:40.330Z,4.67
2019-02-25T17:09:09.809Z,6.63
2019-02-25T17:11:40.123Z,6.30
2019-02-25T17:14:09.153Z,6.63
2019-02-25T17:16:36.889Z,11.53
2019-02-25T17:19:04.744Z,8.57
2019-02-25T17:21:32.691Z,7.53
2019-02-25T17:24:01.341Z,9.70
2019-02-25T17:26:30.214Z,9.23
2019-02-25T17:28:58.020Z,12.40
2019-02-25T17:31:25.920Z,9.97
2019-02-25T17:33:55.667Z,9.97
2019-02-25T17:36:23.410Z,12.73
2019-02-25T17:38:51.971Z,10.73
2019-02-25T17:41:20.031Z,11.93
2019-02-25T17:43:47.926Z,10.37
2019-02-25T17:46:15.750Z,9.67
2019-02-25T17:48:45.912Z,11.40
2019-02-25T17:51:19.156Z,11.83
2019-02-25T17:53:49.915Z,12.13
2019-02-25T17:56:18.502Z,11.73
2019-02-25T17:58:47.651Z,11.50
2019-02-25T18:01:16.952Z,12.70
2019-02-25T18:03:46.084Z,12.37
2019-02-25T18:06:15.110Z,11.60
2019-02-25T18:08:42.904Z,11.90
2019-02-25T18:11:11.011Z,11.97
2019-02-25T18:13:38.794Z,18.10
2019-02-25T18:16:08.561Z,18.33
2019-02-25T18:18:39.210Z,16.33
2019-02-25T18:21:08.220Z,12.77
2019-02-25T18:23:36.330Z,12.10
2019-02-25T18:26:05.211Z,9.70
2019-02-25T18:28:34.894Z,9.47
2019-02-25T18:31:10.825Z,13.07
2019-02-25T18:33:38.086Z,12.50
2019-02-25T18:36:07.148Z,9.73
2019-02-25T18:38:35.990Z,11.03
2019-02-25T18:41:04.751Z,12.63
2019-02-25T18:43:34.064Z,11.97
2019-02-25T18:46:03.350Z,10.07
2019-02-25T18:48:32.098Z,9.03
2019-02-25T18:51:01.287Z,8.63
2019-02-25T18:53:29.730Z,7.97
2019-02-25T18:55:57.529Z,7.60
2019-02-25T18:58:25.334Z,8.47
2019-02-25T19:00:57.055Z,8.00
2019-02-25T19:03:26.571Z,8.07
2019-02-25T19:05:55.382Z,8.07
2019-02-25T19:08:26.331Z,8.03
2019-02-25T19:10:54.957Z,8.90
2019-02-25T19:13:25.382Z,7.73
2019-02-25T19:15:54.877Z,8.93
2019-02-25T19:18:24.064Z,6.50
2019-02-25T19:20:52.549Z,7.37
2019-02-25T19:23:20.546Z,6.40
2019-02-25T19:25:48.357Z,7.50
2019-02-25T19:28:18.702Z,7.63
2019-02-25T19:30:46.168Z,8.63
2019-02-25T19:33:19.355Z,11.20
2019-02-25T19:35:44.306Z,8.87
2019-02-25T19:38:14.678Z,9.23
2019-02-25T19:40:43.213Z,9.53
2019-02-25T19:43:12.113Z,8.27
2019-02-25T19:45:40.813Z,9.43
2019-02-25T19:48:10.299Z,10.83
2019-02-25T19:50:49.830Z,8.90
2019-02-25T19:53:11.824Z,9.20
2019-02-25T19:55:38.672Z,9.47
2019-02-25T19:58:07.486Z,9.97
2019-02-25T20:00:35.911Z,8.50
2019-02-25T20:03:06.087Z,8.07
2019-02-25T20:05:33.767Z,7.90
2019-02-25T20:08:01.627Z,7.47
2019-02-25T20:10:30.700Z,6.37
2019-02-25T20:12:58.731Z,6.53
2019-02-25T20:15:26.591Z,6.73
2019-02-25T20:17:55.238Z,6.70
2019-02-25T20:20:26.056Z,15.17
2019-02-25T20:22:53.934Z,14.27
2019-02-25T20:25:24.505Z,17.90
2019-02-25T20:27:52.858Z,21.00
2019-02-25T20:30:23.500Z,17.20
2019-02-25T20:32:53.012Z,14.87
2019-02-25T20:35:22.202Z,15.20
2019-02-25T20:37:52.986Z,14.93
2019-02-25T20:40:25.516Z,12.43
2019-02-25T20:42:53.476Z,11.73
2019-02-25T20:45:23.669Z,12.40
2019-02-25T20:47:52.249Z,10.90
2019-02-25T20:50:26.940Z,9.50
2019-02-25T20:52:56.015Z,17.07
2019-02-25T20:55:24.996Z,20.13
2019-02-25T20:57:54.206Z,20.60
2019-02-25T21:00:42.000Z,17.60
2019-02-25T21:03:14.362Z,16.37
2019-02-25T21:05:41.792Z,14.00
2019-02-25T21:08:09.605Z,14.33
2019-02-25T21:10:37.506Z,16.23
2019-02-25T21:13:05.376Z,19.30
2019-02-25T21:15:35.457Z,16.77
2019-02-25T21:18:06.906Z,15.43
2019-02-25T21:20:37.151Z,14.03
2019-02-25T21:23:06.013Z,8.77
2019-02-25T21:25:44.178Z,12.63
2019-02-25T21:28:12.560Z,11.83
2019-02-25T21:31:07.141Z,12.50
2019-02-25T21:33:34.728Z,10.90
2019-02-25T21:36:02.657Z,11.37
2019-02-25T21:38:30.466Z,11.00
2019-02-25T21:41:00.975Z,11.83
2019-02-25T21:43:29.164Z,8.77
2019-02-25T21:45:59.341Z,9.10
2019-02-25T21:48:27.937Z,7.83
2019-02-25T21:51:04.564Z,9.63
2019-02-25T21:53:31.916Z,11.10
2019-02-25T21:56:02.946Z,13.73
2019-02-25T21:58:29.466Z,13.17
2019-02-25T22:00:57.346Z,11.87
2019-02-25T22:03:25.175Z,12.53
2019-02-25T22:05:55.407Z,11.33
2019-02-25T22:08:24.366Z,10.37
2019-02-25T22:11:01.257Z,10.03
2019-02-25T22:13:27.746Z,10.23
2019-02-25T22:15:57.403Z,10.30
2019-02-25T22:18:26.151Z,10.03
2019-02-25T22:21:00.078Z,9.90
2019-02-25T22:23:28.345Z,10.80
2019-02-25T22:25:57.638Z,9.27
2019-02-25T22:28:44.916Z,10.30
2019-02-25T22:31:22.257Z,9.80
2019-02-25T22:33:50.082Z,8.60
2019-02-25T22:36:17.868Z,9.10
2019-02-25T22:38:45.700Z,8.67
2019-02-25T22:41:20.467Z,9.17
2019-02-25T22:43:48.353Z,8.83
2019-02-25T22:46:16.101Z,9.53
2019-02-25T22:48:45.495Z,9.13
2019-02-25T22:51:13.601Z,9.23
2019-02-25T22:53:41.388Z,9.97
2019-02-25T22:56:13.250Z,9.57
2019-02-25T22:58:40.666Z,8.90
2019-02-25T23:01:17.602Z,8.60
2019-02-25T23:03:44.960Z,11.33
2019-02-25T23:06:13.469Z,12.60
2019-02-25T23:08:44.063Z,13.67
2019-02-25T23:11:14.157Z,11.93
2019-02-25T23:13:42.785Z,13.27
2019-02-25T23:16:10.933Z,11.13
2019-02-25T23:18:38.753Z,8.33
2019-02-25T23:21:06.544Z,9.17
2019-02-25T23:23:35.592Z,8.17
2019-02-25T23:26:04.037Z,8.60
2019-02-25T23:28:31.823Z,9.87
2019-02-25T23:30:59.624Z,12.10
2019-02-25T23:33:27.383Z,10.73
2019-02-25T23:35:56.048Z,10.67
2019-02-25T23:38:23.986Z,10.80
2019-02-25T23:40:51.761Z,10.10
2019-02-25T23:43:19.598Z,11.57
2019-02-25T23:45:47.438Z,9.97
2019-02-25T23:48:15.277Z,14.10
2019-02-25T23:50:43.068Z,12.03
2019-02-25T23:53:10.899Z,11.23
2019-02-25T23:55:38.707Z,11.00
2019-02-25T23:58:10.244Z,9.23
